Time;durP1;ratioP1;P1;durP2;ratioP2;P2;SDS_P1;SDS_P2;PMS_P1;PMS_P2;Temp;Humidity;BMP_temperature;BMP_pressure;BME280_temperature;BME280_humidity;BME280_pressure;Samples;Min_cycle;Max_cycle;Signal;HPM_P1;HPM_P2
2021/05/26 00:00:56;;;;;;;11.40;10.05;;;9.20;99.90;;;;;;5077830;28;20044;-69
2021/05/26 00:03:22;;;;;;;18.65;10.80;;;9.20;99.90;;;;;;5061644;28;20041;-69
2021/05/26 00:05:49;;;;;;;14.35;10.07;;;9.10;99.90;;;;;;5067661;28;20132;-69
2021/05/26 00:08:26;;;;;;;16.38;10.52;;;9.10;99.90;;;;;;5050068;28;20049;-69
2021/05/26 00:10:52;;;;;;;16.60;10.73;;;9.10;99.90;;;;;;5067262;28;20044;-70
2021/05/26 00:13:18;;;;;;;13.20;10.68;;;9.20;99.90;;;;;;5067429;28;20064;-68
2021/05/26 00:15:45;;;;;;;13.77;10.63;;;9.10;99.90;;;;;;5067652;28;20041;-69
2021/05/26 00:18:12;;;;;;;13.35;9.93;;;9.00;99.90;;;;;;5082637;28;20048;-69
2021/05/26 00:20:38;;;;;;;11.98;10.48;;;9.00;99.90;;;;;;5069371;28;20063;-70
2021/05/26 00:23:04;;;;;;;15.02;10.50;;;9.00;99.90;;;;;;5078864;28;20040;-69
2021/05/26 00:25:29;;;;;;;14.00;10.73;;;9.00;99.90;;;;;;5087141;28;20052;-69
2021/05/26 00:27:58;;;;;;;15.25;10.70;;;9.00;99.90;;;;;;5081290;28;20076;-69
2021/05/26 00:30:29;;;;;;;12.75;11.10;;;9.00;99.90;;;;;;5062150;28;20075;-69
2021/05/26 00:32:56;;;;;;;15.25;10.73;;;9.10;99.90;;;;;;5049438;28;20045;-70
2021/05/26 00:35:23;;;;;;;16.02;11.98;;;9.10;99.90;;;;;;5075859;28;20049;-70
2021/05/26 00:37:49;;;;;;;15.23;11.48;;;9.00;99.90;;;;;;5073570;28;20049;-70
2021/05/26 00:40:15;;;;;;;14.82;11.45;;;9.10;99.90;;;;;;5079160;28;20116;-69
2021/05/26 00:42:42;;;;;;;15.63;11.70;;;9.10;99.90;;;;;;5066689;28;20045;-69
2021/05/26 00:45:09;;;;;;;17.55;12.15;;;9.00;99.90;;;;;;5066852;28;20045;-70
2021/05/26 00:47:46;;;;;;;18.20;12.82;;;9.00;99.90;;;;;;5049349;28;20045;-69
2021/05/26 00:50:24;;;;;;;17.65;12.60;;;9.00;99.90;;;;;;5080946;28;20055;-69
2021/05/26 00:52:52;;;;;;;15.65;12.82;;;9.00;99.90;;;;;;5086040;28;20108;-69
2021/05/26 00:55:20;;;;;;;17.08;13.05;;;9.00;99.90;;;;;;5084651;28;20048;-69
2021/05/26 00:57:48;;;;;;;14.68;11.93;;;9.10;99.90;;;;;;5066992;28;20037;-69
2021/05/26 01:00:17;;;;;;;15.02;12.90;;;9.10;99.90;;;;;;5074570;28;20041;-70
2021/05/26 01:02:45;;;;;;;15.95;12.10;;;9.10;99.90;;;;;;5083459;28;20044;-70
2021/05/26 01:05:13;;;;;;;14.35;12.02;;;9.00;99.90;;;;;;5082494;28;20044;-70
2021/05/26 01:07:40;;;;;;;15.02;13.13;;;9.00;99.90;;;;;;5086955;28;20496;-69
2021/05/26 01:10:10;;;;;;;19.67;12.95;;;9.00;99.90;;;;;;5086689;28;20062;-69
2021/05/26 01:12:36;;;;;;;21.35;13.98;;;9.00;99.90;;;;;;5068786;28;20044;-69
2021/05/26 01:15:04;;;;;;;20.00;13.95;;;9.00;99.90;;;;;;5083877;28;20048;-69
2021/05/26 01:17:30;;;;;;;18.65;13.10;;;9.00;99.90;;;;;;5066466;28;20072;-69
2021/05/26 01:19:56;;;;;;;22.33;14.00;;;9.00;99.90;;;;;;5066400;28;20128;-70
2021/05/26 01:22:22;;;;;;;20.45;13.73;;;9.00;99.90;;;;;;5070193;28;20036;-69
2021/05/26 01:24:47;;;;;;;18.80;14.07;;;8.90;99.90;;;;;;5084275;28;20049;-70
2021/05/26 01:27:13;;;;;;;18.08;14.68;;;9.00;99.90;;;;;;5066589;28;20600;-69
2021/05/26 01:29:40;;;;;;;18.98;14.00;;;9.00;99.90;;;;;;5085513;28;20420;-69
2021/05/26 01:32:05;;;;;;;20.40;14.38;;;9.00;99.90;;;;;;5085752;28;20056;-70
2021/05/26 01:34:31;;;;;;;18.10;13.50;;;9.00;99.90;;;;;;5084448;28;20044;-69
2021/05/26 01:36:58;;;;;;;17.48;14.02;;;9.00;99.90;;;;;;5086114;28;20075;-69
2021/05/26 01:39:24;;;;;;;20.08;13.80;;;9.00;99.90;;;;;;5084977;28;20075;-69
2021/05/26 01:41:50;;;;;;;18.33;13.98;;;9.00;99.90;;;;;;5085537;28;20044;-70
2021/05/26 01:44:16;;;;;;;27.08;15.32;;;9.00;99.90;;;;;;5085111;28;20045;-70
2021/05/26 01:46:42;;;;;;;19.45;14.02;;;9.00;99.90;;;;;;5085622;28;20075;-69
2021/05/26 01:49:09;;;;;;;18.00;13.68;;;9.00;99.90;;;;;;5062269;28;20041;-69
2021/05/26 01:51:35;;;;;;;19.00;13.07;;;9.10;99.90;;;;;;5066469;28;20041;-69
2021/05/26 01:54:03;;;;;;;18.33;14.07;;;9.20;99.90;;;;;;5065772;28;20041;-69
2021/05/26 01:56:30;;;;;;;15.40;13.35;;;9.20;99.90;;;;;;5065988;28;20041;-69
2021/05/26 01:58:57;;;;;;;17.73;13.02;;;9.20;99.90;;;;;;5067522;28;20049;-68
2021/05/26 02:01:25;;;;;;;16.45;12.82;;;9.20;99.90;;;;;;5085142;28;20095;-69
2021/05/26 02:03:52;;;;;;;16.48;13.32;;;9.20;99.90;;;;;;5084876;28;20048;-69
2021/05/26 02:06:20;;;;;;;16.00;12.13;;;9.20;99.90;;;;;;5085213;28;20052;-69
2021/05/26 02:08:49;;;;;;;16.52;12.93;;;9.20;99.90;;;;;;5085165;28;20098;-69
2021/05/26 02:14:02;;;;;;;14.70;12.65;;;9.20;99.90;;;;;;5084603;28;20045;-69
2021/05/26 02:16:27;;;;;;;16.60;12.93;;;9.30;99.90;;;;;;5085562;28;20070;-69
2021/05/26 02:18:53;;;;;;;16.42;13.00;;;9.30;99.90;;;;;;5084493;28;20048;-69
2021/05/26 02:21:20;;;;;;;17.92;13.48;;;9.40;99.90;;;;;;5067334;28;20049;-69
2021/05/26 02:23:46;;;;;;;15.43;12.73;;;9.40;99.90;;;;;;5070158;28;20504;-69
2021/05/26 02:26:12;;;;;;;17.48;12.30;;;9.40;99.90;;;;;;5066471;28;20528;-70
2021/05/26 02:28:38;;;;;;;17.50;12.57;;;9.40;99.90;;;;;;5076429;28;20064;-69
2021/05/26 02:31:04;;;;;;;18.33;13.02;;;9.40;99.90;;;;;;5061127;28;20048;-70
2021/05/26 02:33:29;;;;;;;15.73;12.77;;;9.40;99.90;;;;;;5084930;28;20488;-69
2021/05/26 02:35:55;;;;;;;15.07;13.48;;;9.40;99.90;;;;;;5084646;28;20064;-69
2021/05/26 02:38:21;;;;;;;14.73;12.75;;;9.50;99.90;;;;;;5084701;28;20050;-69
2021/05/26 02:40:47;;;;;;;21.33;12.90;;;9.40;99.90;;;;;;5084938;28;20570;-69
2021/05/26 02:43:12;;;;;;;15.45;12.63;;;9.50;99.90;;;;;;5071096;28;20075;-68
2021/05/26 02:45:39;;;;;;;17.33;12.07;;;9.50;99.90;;;;;;5066610;28;20048;-68
2021/05/26 02:48:05;;;;;;;16.02;12.50;;;9.50;99.90;;;;;;5071369;28;20079;-69
2021/05/26 02:50:31;;;;;;;17.42;13.38;;;9.40;99.90;;;;;;5084046;28;20048;-69
2021/05/26 02:52:57;;;;;;;16.70;12.57;;;9.40;99.90;;;;;;5087256;28;20070;-69
2021/05/26 02:55:24;;;;;;;17.35;12.40;;;9.40;99.90;;;;;;5088347;28;20123;-69
2021/05/26 02:57:50;;;;;;;14.82;12.15;;;9.40;99.90;;;;;;5084035;28;20044;-69
2021/05/26 03:00:19;;;;;;;17.48;12.40;;;9.30;99.90;;;;;;5081104;28;20124;-69
2021/05/26 03:02:45;;;;;;;17.23;13.10;;;9.40;99.90;;;;;;5085992;28;20079;-69
2021/05/26 03:05:12;;;;;;;19.10;12.75;;;9.40;99.90;;;;;;5080700;28;20127;-69
2021/05/26 03:07:39;;;;;;;21.80;14.52;;;9.40;99.90;;;;;;5051841;28;20409;-69
2021/05/26 03:10:07;;;;;;;17.35;13.73;;;9.40;99.90;;;;;;5084739;28;20081;-69
2021/05/26 03:12:33;;;;;;;21.15;16.05;;;9.40;99.90;;;;;;5088094;28;20040;-68
2021/05/26 03:14:59;;;;;;;22.33;16.23;;;9.40;99.90;;;;;;5088341;28;20045;-68
2021/05/26 03:17:28;;;;;;;22.63;17.38;;;9.40;99.90;;;;;;5088404;28;20045;-69
2021/05/26 03:19:57;;;;;;;24.58;18.20;;;9.40;99.90;;;;;;5088539;28;20048;-69
2021/05/26 03:22:23;;;;;;;27.63;18.55;;;9.50;99.90;;;;;;5073203;28;20040;-68
2021/05/26 03:24:49;;;;;;;26.27;20.10;;;9.40;99.90;;;;;;5070711;28;20123;-69
2021/05/26 03:27:15;;;;;;;28.20;19.98;;;9.40;99.90;;;;;;5086140;28;20100;-68
2021/05/26 03:29:42;;;;;;;31.00;21.42;;;9.40;99.90;;;;;;5079680;28;20044;-68
2021/05/26 03:32:07;;;;;;;37.17;23.77;;;9.40;99.90;;;;;;5070400;28;20049;-68
2021/05/26 03:34:34;;;;;;;31.73;21.75;;;9.40;99.90;;;;;;5078485;28;20079;-68
2021/05/26 03:37:00;;;;;;;35.75;23.42;;;9.40;99.90;;;;;;5088400;28;20041;-68
2021/05/26 03:39:25;;;;;;;30.85;22.80;;;9.50;99.90;;;;;;5087935;28;20049;-68
2021/05/26 03:41:51;;;;;;;33.38;24.58;;;9.40;99.90;;;;;;5087545;28;20098;-68
2021/05/26 03:44:17;;;;;;;37.85;25.02;;;9.50;99.90;;;;;;5087730;28;20045;-68
2021/05/26 03:46:43;;;;;;;32.92;23.65;;;9.40;99.90;;;;;;5087259;28;20051;-68
2021/05/26 03:49:09;;;;;;;33.45;23.42;;;9.50;99.90;;;;;;5087311;28;20053;-68
2021/05/26 03:51:36;;;;;;;32.33;22.98;;;9.50;99.90;;;;;;5087538;28;20484;-68
2021/05/26 03:54:02;;;;;;;35.33;23.70;;;9.50;99.90;;;;;;5087580;28;20040;-68
2021/05/26 03:56:29;;;;;;;35.78;23.67;;;9.50;99.90;;;;;;5086992;28;20060;-69
2021/05/26 03:58:58;;;;;;;36.92;24.17;;;9.60;99.90;;;;;;5067566;28;20056;-69
2021/05/26 04:01:24;;;;;;;34.60;23.17;;;9.60;99.90;;;;;;5083568;28;20495;-68
2021/05/26 04:03:52;;;;;;;33.90;22.73;;;9.60;99.90;;;;;;5086702;28;20102;-68
2021/05/26 04:06:18;;;;;;;38.42;25.05;;;9.60;99.90;;;;;;5087412;28;20045;-69
2021/05/26 04:08:44;;;;;;;34.85;25.02;;;9.60;99.90;;;;;;5087356;28;20044;-69
2021/05/26 05:58:39;;;;;;;10.85;7.82;;;9.70;99.90;;;;;;4290517;28;21336;-67
2021/05/26 06:01:06;;;;;;;11.10;7.40;;;9.70;99.90;;;;;;5049287;28;20057;-70
2021/05/26 06:03:32;;;;;;;11.10;7.78;;;9.70;99.90;;;;;;5047372;28;20555;-68
2021/05/26 06:05:57;;;;;;;9.18;6.38;;;9.70;99.90;;;;;;5049736;28;20613;-68
2021/05/26 06:08:24;;;;;;;8.90;6.30;;;9.70;99.90;;;;;;5046449;28;20053;-68
2021/05/26 06:10:50;;;;;;;8.68;6.65;;;9.60;99.90;;;;;;5060152;28;20064;-67
2021/05/26 06:13:16;;;;;;;9.25;6.25;;;9.60;99.90;;;;;;5041896;28;20042;-68
2021/05/26 06:15:42;;;;;;;7.28;5.68;;;9.60;99.90;;;;;;5062166;28;20052;-68
2021/05/26 06:18:07;;;;;;;9.13;6.40;;;9.70;99.90;;;;;;5054402;28;20045;-69
2021/05/26 06:20:33;;;;;;;5.88;5.25;;;9.70;99.90;;;;;;5048869;28;20368;-68
2021/05/26 06:22:59;;;;;;;7.18;5.18;;;9.70;99.90;;;;;;5048142;28;20107;-68
2021/05/26 06:25:26;;;;;;;9.25;4.95;;;9.80;99.90;;;;;;5055247;28;20087;-68
2021/05/26 06:27:52;;;;;;;8.20;5.40;;;9.90;99.90;;;;;;5048419;28;20080;-69
2021/05/26 06:30:18;;;;;;;6.97;5.30;;;10.00;99.90;;;;;;5041033;28;20056;-68
2021/05/26 06:32:44;;;;;;;7.72;5.63;;;10.00;99.90;;;;;;5049181;28;20053;-67
2021/05/26 06:35:11;;;;;;;8.18;6.15;;;10.20;99.90;;;;;;5047861;28;20057;-68
2021/05/26 06:37:37;;;;;;;7.25;6.35;;;10.30;99.90;;;;;;5051846;28;20041;-69
2021/05/26 06:40:05;;;;;;;9.60;6.38;;;10.40;99.90;;;;;;5022892;28;20057;-68
2021/05/26 06:42:31;;;;;;;10.65;7.35;;;10.40;99.90;;;;;;5048617;28;20075;-68
2021/05/26 06:44:57;;;;;;;11.90;7.97;;;10.30;99.90;;;;;;5057703;28;20133;-68
2021/05/26 06:47:23;;;;;;;7.50;6.75;;;10.40;99.90;;;;;;5053258;28;20040;-69
2021/05/26 06:49:48;;;;;;;9.45;7.63;;;10.60;99.90;;;;;;5045442;28;20056;-69
2021/05/26 06:52:14;;;;;;;11.65;7.95;;;10.60;99.90;;;;;;5056656;28;20371;-68
2021/05/26 06:54:40;;;;;;;12.40;8.00;;;10.70;99.90;;;;;;5041637;28;20053;-68
2021/05/26 06:57:06;;;;;;;11.68;8.18;;;10.70;99.90;;;;;;5055978;28;20096;-68
2021/05/26 06:59:32;;;;;;;9.50;7.68;;;10.70;99.90;;;;;;5052413;28;20139;-68
2021/05/26 07:01:59;;;;;;;10.38;8.52;;;10.80;99.90;;;;;;5062601;28;20387;-69
2021/05/26 07:04:24;;;;;;;14.27;9.73;;;10.90;99.90;;;;;;5050057;28;20144;-69
2021/05/26 07:06:50;;;;;;;13.43;9.93;;;10.60;99.90;;;;;;5036843;28;20099;-68
2021/05/26 07:09:16;;;;;;;13.70;11.65;;;10.40;99.90;;;;;;5051843;28;20144;-69
2021/05/26 07:11:42;;;;;;;16.73;11.98;;;10.30;99.90;;;;;;5038709;28;20060;-69
2021/05/26 07:14:08;;;;;;;16.42;11.90;;;10.30;99.90;;;;;;5056903;28;20041;-69
2021/05/26 07:16:34;;;;;;;17.05;11.50;;;10.30;99.90;;;;;;5047703;28;20210;-68
2021/05/26 07:19:00;;;;;;;17.92;11.80;;;10.30;99.90;;;;;;5073900;28;20068;-69
2021/05/26 07:21:27;;;;;;;20.70;13.00;;;10.30;99.90;;;;;;5058120;28;20575;-69
2021/05/26 07:23:54;;;;;;;20.33;12.70;;;10.30;99.90;;;;;;5045747;28;20072;-69
2021/05/26 07:26:21;;;;;;;19.63;12.07;;;10.40;99.90;;;;;;5057432;28;20078;-70
2021/05/26 07:28:48;;;;;;;20.83;13.25;;;10.40;99.90;;;;;;5063013;28;20120;-69
2021/05/26 07:31:13;;;;;;;15.60;12.23;;;10.50;99.90;;;;;;5056054;28;20048;-69
2021/05/26 07:33:40;;;;;;;18.27;12.30;;;10.50;99.90;;;;;;5063046;28;20048;-70
2021/05/26 07:36:06;;;;;;;14.57;12.23;;;10.50;99.90;;;;;;5055864;28;20045;-69
2021/05/26 07:38:32;;;;;;;18.85;12.05;;;10.50;99.90;;;;;;5064405;28;20160;-69
2021/05/26 07:40:58;;;;;;;17.67;12.88;;;10.60;99.90;;;;;;5048207;28;20063;-69
2021/05/26 07:43:24;;;;;;;18.23;12.82;;;10.60;99.90;;;;;;5050939;28;20049;-69
2021/05/26 07:45:50;;;;;;;19.25;12.48;;;10.60;99.90;;;;;;5057245;28;20048;-69
2021/05/26 07:48:16;;;;;;;17.10;12.57;;;10.70;99.90;;;;;;5063839;28;20584;-69
2021/05/26 07:50:43;;;;;;;19.17;12.10;;;10.70;99.90;;;;;;5062394;28;20067;-68
2021/05/26 07:53:09;;;;;;;17.23;13.30;;;10.70;99.90;;;;;;5063196;28;20049;-69
2021/05/26 07:55:34;;;;;;;19.90;15.25;;;10.70;99.90;;;;;;5065294;28;20047;-68
2021/05/26 07:58:00;;;;;;;21.95;16.50;;;10.60;99.90;;;;;;5052877;28;20049;-69
2021/05/26 08:00:26;;;;;;;19.60;16.05;;;10.70;99.90;;;;;;5076427;28;20048;-68
2021/05/26 08:02:53;;;;;;;17.55;14.63;;;10.60;99.90;;;;;;5068115;28;20056;-68
2021/05/26 08:05:21;;;;;;;21.48;14.35;;;10.60;99.90;;;;;;5074771;28;20436;-69
2021/05/26 08:07:47;;;;;;;21.90;16.10;;;10.70;99.90;;;;;;5070812;28;20107;-69
2021/05/26 08:10:13;;;;;;;23.50;15.88;;;10.60;99.90;;;;;;5079550;28;20048;-69
2021/05/26 08:12:40;;;;;;;22.55;16.50;;;10.50;99.90;;;;;;5070110;28;20136;-69
2021/05/26 08:15:08;;;;;;;23.50;17.25;;;10.50;99.90;;;;;;5079929;28;20114;-69
2021/05/26 08:17:35;;;;;;;20.02;16.05;;;10.50;99.90;;;;;;5069654;28;20048;-69
2021/05/26 08:20:01;;;;;;;15.60;8.70;;;10.40;99.90;;;;;;5080463;28;20037;-69
2021/05/26 08:22:29;;;;;;;15.10;9.98;;;10.40;99.90;;;;;;5070661;28;20052;-70
2021/05/26 08:24:55;;;;;;;12.68;8.95;;;10.40;99.90;;;;;;5079394;28;20150;-69
2021/05/26 08:27:20;;;;;;;10.40;7.13;;;10.40;99.90;;;;;;5068125;28;20059;-69
2021/05/26 08:29:46;;;;;;;8.90;5.03;;;10.40;99.90;;;;;;5078221;28;20052;-69
2021/05/26 08:32:12;;;;;;;5.95;4.80;;;10.30;99.90;;;;;;5069417;28;20064;-69
2021/05/26 08:34:38;;;;;;;6.72;4.18;;;10.30;99.90;;;;;;5078042;28;20051;-68
2021/05/26 08:37:04;;;;;;;6.45;3.88;;;10.30;99.90;;;;;;5050986;28;20202;-69
2021/05/26 08:39:34;;;;;;;3.28;2.53;;;10.30;99.90;;;;;;5066511;28;20048;-69
2021/05/26 08:42:00;;;;;;;3.78;3.38;;;10.10;99.90;;;;;;5069104;28;20530;-69
2021/05/26 08:44:25;;;;;;;5.30;3.50;;;10.20;99.90;;;;;;5078497;28;20045;-68
2021/05/26 08:46:53;;;;;;;5.45;3.70;;;10.20;99.90;;;;;;5067158;28;20083;-67
2021/05/26 08:49:20;;;;;;;5.88;3.33;;;10.40;99.90;;;;;;5077217;28;20037;-69
2021/05/26 08:51:46;;;;;;;6.55;3.78;;;10.50;99.90;;;;;;5077651;28;20048;-69
2021/05/26 08:54:13;;;;;;;4.97;3.83;;;10.50;99.90;;;;;;5038822;28;20052;-70
2021/05/26 08:56:39;;;;;;;10.70;6.05;;;10.60;99.90;;;;;;5079294;28;20050;-69
2021/05/26 08:59:05;;;;;;;8.15;6.90;;;10.80;99.90;;;;;;5064918;28;20575;-68
2021/05/26 09:01:30;;;;;;;12.00;7.65;;;11.10;99.90;;;;;;5078603;28;20058;-68
2021/05/26 09:04:28;;;;;;;8.05;6.47;;;11.30;99.90;;;;;;5069584;28;20132;-68
2021/05/26 09:07:14;;;;;;;9.63;7.50;;;11.40;99.90;;;;;;5067037;28;20051;-68
2021/05/26 09:09:59;;;;;;;10.30;7.82;;;11.60;99.90;;;;;;5077194;28;20387;-70
2021/05/26 09:12:29;;;;;;;10.27;6.57;;;11.70;99.90;;;;;;5068736;28;20478;-69
2021/05/26 09:15:17;;;;;;;7.40;4.60;;;12.00;99.90;;;;;;5059442;28;20086;-68
2021/05/26 09:17:56;;;;;;;9.82;7.07;;;12.10;99.90;;;;;;5067968;28;20223;-69
2021/05/26 09:20:28;;;;;;;6.82;4.20;;;12.20;99.90;;;;;;5076102;28;20122;-69
2021/05/26 09:23:13;;;;;;;6.45;3.13;;;12.20;99.90;;;;;;5059610;28;20084;-68
2021/05/26 09:25:46;;;;;;;6.10;3.08;;;12.10;99.90;;;;;;5055797;28;20188;-69
2021/05/26 09:28:17;;;;;;;7.45;3.72;;;12.20;99.90;;;;;;5064697;28;20044;-69
2021/05/26 09:30:54;;;;;;;7.20;4.05;;;12.20;99.90;;;;;;5080280;28;20040;-69
2021/05/26 09:33:25;;;;;;;8.90;3.80;;;12.20;99.90;;;;;;5069153;28;20053;-68
2021/05/26 09:36:08;;;;;;;5.43;4.03;;;12.10;99.90;;;;;;5077418;28;20082;-68
2021/05/26 09:38:36;;;;;;;5.82;3.83;;;12.30;99.90;;;;;;5040859;28;20060;-68
2021/05/26 09:41:26;;;;;;;5.75;4.07;;;12.30;99.90;;;;;;5005022;28;20071;-68
2021/05/26 09:44:02;;;;;;;7.05;3.65;;;12.30;99.90;;;;;;5068313;28;20052;-69
2021/05/26 09:46:36;;;;;;;7.53;3.42;;;11.90;99.90;;;;;;5080879;28;20036;-68
2021/05/26 09:49:13;;;;;;;4.38;3.70;;;11.80;99.90;;;;;;5052967;28;20048;-69
2021/05/26 09:51:43;;;;;;;3.75;3.08;;;11.60;99.90;;;;;;5078256;28;20075;-69
2021/05/26 09:54:13;;;;;;;5.07;3.13;;;11.60;99.90;;;;;;5068140;28;20048;-69
2021/05/26 09:56:41;;;;;;;4.20;3.45;;;11.50;99.90;;;;;;5080598;28;20052;-69
2021/05/26 09:59:07;;;;;;;6.43;3.67;;;11.50;99.90;;;;;;5069427;28;20049;-69
2021/05/26 10:01:34;;;;;;;4.78;3.47;;;11.60;99.90;;;;;;5079857;28;20382;-68
2021/05/26 10:04:02;;;;;;;4.68;3.85;;;11.50;99.90;;;;;;5067849;28;20060;-69
2021/05/26 10:06:29;;;;;;;6.57;5.80;;;11.50;99.90;;;;;;5061534;28;20048;-70
2021/05/26 10:08:56;;;;;;;6.43;5.20;;;11.70;99.90;;;;;;5067118;28;20403;-69
2021/05/26 10:11:26;;;;;;;4.90;3.80;;;12.00;99.90;;;;;;5077921;28;20044;-69
2021/05/26 10:13:53;;;;;;;4.88;3.53;;;12.20;99.90;;;;;;5067321;28;20545;-70
2021/05/26 10:16:20;;;;;;;5.53;4.13;;;12.40;99.90;;;;;;5060302;28;20043;-69
2021/05/26 10:18:47;;;;;;;7.07;5.03;;;12.50;99.90;;;;;;5067444;28;20129;-68
2021/05/26 10:21:21;;;;;;;4.60;3.58;;;12.40;99.90;;;;;;5076788;28;20051;-69
2021/05/26 10:23:51;;;;;;;11.70;4.00;;;12.30;99.90;;;;;;5068328;28;20108;-69
2021/05/26 10:26:46;;;;;;;4.80;2.10;;;12.30;99.90;;;;;;5077745;28;20040;-68
2021/05/26 10:29:30;;;;;;;2.40;2.20;;;12.20;99.90;;;;;;5066228;28;20048;-68
2021/05/26 10:32:14;;;;;;;2.53;1.85;;;12.10;99.90;;;;;;5072613;28;20064;-69
2021/05/26 10:34:42;;;;;;;1.73;1.50;;;12.10;99.90;;;;;;5046029;28;20044;-69
2021/05/26 10:37:33;;;;;;;3.47;1.52;;;12.20;99.90;;;;;;5067540;28;20047;-70
2021/05/26 10:40:00;;;;;;;2.25;1.50;;;12.20;99.90;;;;;;5025703;28;20078;-69
2021/05/26 10:42:31;;;;;;;5.00;2.05;;;12.30;99.90;;;;;;5050395;28;20048;-73
2021/05/26 10:45:07;;;;;;;4.97;2.40;;;12.40;99.90;;;;;;5061748;28;20112;-72
2021/05/26 10:47:36;;;;;;;5.22;2.75;;;12.60;99.90;;;;;;5069658;28;20096;-72
2021/05/26 10:50:16;;;;;;;1.58;1.25;;;12.60;99.90;;;;;;5076425;28;20127;-72
2021/05/26 10:52:54;;;;;;;2.45;1.42;;;12.70;99.90;;;;;;5065884;28;20086;-72
2021/05/26 10:55:36;;;;;;;1.52;1.30;;;12.70;99.90;;;;;;5062135;28;20037;-72
2021/05/26 10:58:24;;;;;;;1.40;1.10;;;12.70;99.90;;;;;;5067270;28;20140;-71
2021/05/26 11:00:56;;;;;;;1.27;1.10;;;12.90;99.90;;;;;;5076719;28;20131;-73
2021/05/26 11:03:24;;;;;;;2.22;1.20;;;13.20;99.90;;;;;;5068801;28;20045;-72
2021/05/26 11:05:52;;;;;;;1.53;1.07;;;13.30;99.90;;;;;;5079163;28;20067;-72
2021/05/26 11:08:38;;;;;;;1.90;1.30;;;13.40;99.90;;;;;;5068389;28;20614;-73
2021/05/26 11:11:22;;;;;;;1.38;1.10;;;13.40;99.90;;;;;;5079248;28;20419;-73
2021/05/26 11:14:03;;;;;;;1.15;1.00;;;13.20;99.90;;;;;;5070265;28;20075;-73
2021/05/26 11:17:01;;;;;;;1.77;0.90;;;13.20;99.90;;;;;;5080916;28;20050;-74
2021/05/26 11:19:28;;;;;;;1.10;1.00;;;13.10;99.90;;;;;;5055413;28;20045;-73
2021/05/26 11:22:01;;;;;;;2.10;0.80;;;13.20;99.90;;;;;;5064565;28;20117;-70
2021/05/26 11:24:33;;;;;;;2.08;0.90;;;13.30;99.90;;;;;;5072436;28;20059;-69
2021/05/26 11:26:59;;;;;;;1.40;1.00;;;13.40;99.90;;;;;;5081833;28;20079;-69
2021/05/26 11:29:26;;;;;;;2.55;0.70;;;13.60;99.90;;;;;;5069597;28;20052;-69
2021/05/26 11:32:09;;;;;;;1.02;0.82;;;13.90;99.90;;;;;;5080646;28;20037;-70
2021/05/26 11:34:36;;;;;;;2.70;1.23;;;14.10;99.90;;;;;;5068272;28;20056;-70
2021/05/26 11:37:03;;;;;;;2.88;1.00;;;14.10;99.90;;;;;;5062848;28;20170;-71
2021/05/26 11:39:32;;;;;;;2.80;0.90;;;14.20;99.90;;;;;;5070575;28;20375;-71
2021/05/26 11:42:17;;;;;;;2.55;1.00;;;14.20;99.90;;;;;;5049252;28;20045;-70
2021/05/26 11:45:00;;;;;;;7.18;1.23;;;14.30;99.90;;;;;;5068976;28;20147;-70
2021/05/26 11:47:31;;;;;;;1.98;1.00;;;14.30;99.90;;;;;;5083602;28;20045;-71
2021/05/26 11:49:58;;;;;;;2.22;0.90;;;14.40;99.90;;;;;;5055086;28;20056;-70
2021/05/26 11:52:25;;;;;;;1.92;0.95;;;14.50;99.90;;;;;;5080451;28;20108;-70
2021/05/26 11:54:59;;;;;;;3.13;0.90;;;14.50;99.90;;;;;;5069754;28;20485;-70
2021/05/26 11:57:36;;;;;;;2.47;1.35;;;14.30;99.90;;;;;;5082858;28;20090;-70
2021/05/26 12:00:04;;;;;;;2.83;1.15;;;14.20;99.90;;;;;;5053289;28;20063;-69
2021/05/26 12:02:31;;;;;;;2.25;0.95;;;14.30;99.90;;;;;;5080601;28;20074;-70
2021/05/26 12:04:57;;;;;;;2.40;0.95;;;14.60;99.90;;;;;;5069283;28;20123;-71
2021/05/26 12:07:28;;;;;;;2.60;1.15;;;14.70;99.90;;;;;;5058348;28;20059;-70
2021/05/26 12:10:00;;;;;;;2.58;1.10;;;14.60;99.90;;;;;;5068412;28;20053;-69
2021/05/26 12:12:26;;;;;;;2.20;1.05;;;14.50;99.90;;;;;;5080523;28;20045;-69
2021/05/26 12:14:53;;;;;;;2.67;1.20;;;14.40;99.90;;;;;;5069614;28;20052;-69
2021/05/26 12:17:20;;;;;;;2.78;1.30;;;14.20;99.90;;;;;;5081034;28;20044;-70
2021/05/26 12:19:47;;;;;;;2.72;1.55;;;14.10;99.90;;;;;;5056044;28;20084;-70
2021/05/26 12:22:19;;;;;;;3.50;1.38;;;13.90;99.90;;;;;;5080097;28;20567;-70
2021/05/26 12:25:00;;;;;;;3.13;1.45;;;14.00;99.90;;;;;;5070310;28;20048;-68
2021/05/26 12:27:35;;;;;;;4.65;1.63;;;14.30;99.90;;;;;;5083141;28;20036;-69
2021/05/26 12:30:21;;;;;;;2.70;1.10;;;14.40;99.90;;;;;;5069050;28;20528;-69
2021/05/26 12:32:49;;;;;;;2.22;0.93;;;14.40;99.90;;;;;;5058793;28;20205;-69
2021/05/26 12:35:26;;;;;;;2.58;1.20;;;14.30;99.90;;;;;;5078253;28;20044;-70
2021/05/26 12:37:56;;;;;;;2.90;0.93;;;14.40;99.90;;;;;;5069507;28;20036;-70
2021/05/26 12:40:25;;;;;;;2.53;1.38;;;14.40;99.90;;;;;;5048091;28;20052;-70
2021/05/26 12:42:52;;;;;;;4.28;1.63;;;14.40;99.90;;;;;;5051405;28;20094;-70
2021/05/26 12:45:26;;;;;;;4.97;1.40;;;14.20;99.90;;;;;;5060540;28;20029;-70
2021/05/26 12:47:53;;;;;;;4.38;1.45;;;14.10;99.90;;;;;;5060463;28;20123;-70
2021/05/26 12:50:24;;;;;;;3.55;1.38;;;14.10;99.90;;;;;;5046268;28;20503;-70
2021/05/26 12:52:54;;;;;;;5.15;1.48;;;14.30;99.90;;;;;;5049210;28;20044;-70
2021/05/26 12:55:24;;;;;;;5.43;1.85;;;14.40;99.90;;;;;;5062087;28;20095;-70
2021/05/26 12:57:59;;;;;;;2.80;1.30;;;14.40;99.90;;;;;;5062184;28;20521;-69
2021/05/26 13:00:25;;;;;;;3.80;1.30;;;14.30;99.90;;;;;;5078015;28;20151;-69
2021/05/26 13:03:06;;;;;;;2.30;1.50;;;14.20;99.90;;;;;;5068863;28;20500;-69
2021/05/26 13:05:41;;;;;;;2.13;1.23;;;14.30;99.90;;;;;;5065247;28;20043;-70
2021/05/26 13:08:12;;;;;;;3.25;1.38;;;14.30;99.90;;;;;;5053236;28;20338;-69
2021/05/26 13:11:00;;;;;;;3.42;1.33;;;14.20;99.90;;;;;;5065885;28;20103;-70
2021/05/26 13:13:30;;;;;;;3.35;1.40;;;14.00;99.90;;;;;;5055663;28;20083;-70
2021/05/26 13:16:01;;;;;;;3.25;1.27;;;14.20;99.90;;;;;;5080516;28;20079;-70
2021/05/26 13:18:29;;;;;;;3.63;1.50;;;14.30;99.90;;;;;;5070628;28;20079;-69
2021/05/26 13:20:57;;;;;;;3.55;1.20;;;14.30;99.90;;;;;;5078182;28;20044;-70
2021/05/26 13:23:23;;;;;;;3.13;1.88;;;14.60;99.90;;;;;;5067930;28;20310;-70
2021/05/26 13:25:55;;;;;;;5.25;1.40;;;14.70;99.90;;;;;;5078077;28;20051;-70
2021/05/26 13:28:22;;;;;;;3.10;1.42;;;15.00;99.90;;;;;;5068619;28;20060;-69
2021/05/26 13:30:49;;;;;;;3.25;1.38;;;14.90;99.90;;;;;;5071702;28;20045;-70
2021/05/26 13:33:16;;;;;;;3.58;1.50;;;14.90;99.90;;;;;;5050731;28;20061;-70
2021/05/26 13:35:43;;;;;;;3.10;1.70;;;14.70;99.90;;;;;;5077071;28;20054;-71
2021/05/26 13:38:10;;;;;;;3.75;1.60;;;14.60;99.90;;;;;;5055244;28;20706;-70
2021/05/26 13:40:41;;;;;;;3.17;1.50;;;14.60;99.90;;;;;;5063242;28;20079;-70
2021/05/26 13:43:07;;;;;;;2.63;1.30;;;14.30;99.90;;;;;;5067743;28;20052;-70
2021/05/26 13:45:33;;;;;;;1.70;1.30;;;14.30;99.90;;;;;;5043323;28;20041;-70
2021/05/26 13:48:00;;;;;;;4.75;1.65;;;14.00;99.90;;;;;;5061016;28;20540;-72
2021/05/26 13:50:26;;;;;;;4.55;1.45;;;13.80;99.90;;;;;;5077156;28;20067;-70
2021/05/26 13:52:59;;;;;;;2.58;1.40;;;13.50;99.90;;;;;;5059985;28;20511;-71
2021/05/26 13:55:28;;;;;;;4.18;1.75;;;13.40;99.90;;;;;;5032988;28;20053;-69
2021/05/26 13:57:56;;;;;;;3.60;1.45;;;13.50;99.90;;;;;;5079959;28;20056;-69
2021/05/26 14:00:27;;;;;;;2.97;1.73;;;13.50;99.90;;;;;;5051650;28;20099;-69
2021/05/26 14:02:53;;;;;;;3.97;1.73;;;13.50;99.90;;;;;;5076545;28;20068;-69
2021/05/26 14:05:20;;;;;;;4.90;1.63;;;13.30;99.90;;;;;;5057887;28;20114;-69
2021/05/26 14:07:46;;;;;;;3.03;1.60;;;13.30;99.90;;;;;;5061844;28;20056;-69
2021/05/26 14:10:14;;;;;;;5.78;1.73;;;13.20;99.90;;;;;;5045225;28;20053;-69
2021/05/26 14:12:42;;;;;;;3.13;1.38;;;13.10;99.90;;;;;;5065124;28;20052;-69
2021/05/26 14:15:08;;;;;;;2.80;1.60;;;13.00;99.90;;;;;;5059508;28;20626;-71
2021/05/26 14:17:34;;;;;;;4.78;2.10;;;12.80;99.90;;;;;;5048928;28;20041;-70
2021/05/26 14:20:00;;;;;;;4.85;1.70;;;12.90;99.90;;;;;;5061313;28;20109;-68
2021/05/26 14:22:28;;;;;;;3.63;1.85;;;12.80;99.90;;;;;;5060270;28;20044;-70
2021/05/26 14:24:53;;;;;;;3.65;2.00;;;12.70;99.90;;;;;;5042017;28;20199;-69
2021/05/26 14:27:20;;;;;;;3.63;2.00;;;12.70;99.90;;;;;;5049209;28;20069;-70
2021/05/26 14:29:46;;;;;;;5.13;2.55;;;12.80;99.90;;;;;;5064262;28;20059;-70
2021/05/26 14:32:12;;;;;;;4.68;2.33;;;12.90;99.90;;;;;;5078625;28;20041;-70
2021/05/26 14:34:40;;;;;;;7.05;2.33;;;12.90;99.90;;;;;;5066602;28;20041;-70
2021/05/26 14:37:17;;;;;;;3.78;1.80;;;12.90;99.90;;;;;;5077242;28;20062;-70
2021/05/26 14:39:48;;;;;;;4.45;1.67;;;12.70;99.90;;;;;;5064000;28;20055;-70